sensor_id;sensor_type;location;lat;lon;timestamp;P1;durP1;ratioP1;P2;durP2;ratioP2
49978;SDS011;35869;50.990;6.962;2023-11-19T00:03:26;4.15;;;3.75;;
49978;SDS011;35869;50.990;6.962;2023-11-19T00:08:26;6.63;;;3.65;;
49978;SDS011;35869;50.990;6.962;2023-11-19T00:13:27;4.30;;;3.88;;
49978;SDS011;35869;50.990;6.962;2023-11-19T00:18:27;5.35;;;4.57;;
49978;SDS011;35869;50.990;6.962;2023-11-19T00:23:27;5.07;;;4.32;;
49978;SDS011;35869;50.990;6.962;2023-11-19T00:28:28;3.90;;;3.40;;
49978;SDS011;35869;50.990;6.962;2023-11-19T00:33:28;8.38;;;4.20;;
49978;SDS011;35869;50.990;6.962;2023-11-19T00:38:28;6.00;;;4.30;;
49978;SDS011;35869;50.990;6.962;2023-11-19T00:43:28;6.13;;;5.53;;
49978;SDS011;35869;50.990;6.962;2023-11-19T00:48:28;10.80;;;6.45;;
49978;SDS011;35869;50.990;6.962;2023-11-19T00:53:29;9.40;;;5.93;;
49978;SDS011;35869;50.990;6.962;2023-11-19T00:58:29;5.00;;;4.50;;
49978;SDS011;35869;50.990;6.962;2023-11-19T01:03:29;4.40;;;3.95;;
49978;SDS011;35869;50.990;6.962;2023-11-19T01:08:31;4.75;;;3.60;;
49978;SDS011;35869;50.990;6.962;2023-11-19T01:13:31;3.13;;;2.67;;
49978;SDS011;35869;50.990;6.962;2023-11-19T01:18:31;4.88;;;2.75;;
49978;SDS011;35869;50.990;6.962;2023-11-19T01:23:31;4.40;;;2.70;;
49978;SDS011;35869;50.990;6.962;2023-11-19T01:28:32;4.18;;;3.53;;
49978;SDS011;35869;50.990;6.962;2023-11-19T01:33:32;2.95;;;2.65;;
49978;SDS011;35869;50.990;6.962;2023-11-19T01:38:32;3.90;;;3.22;;
49978;SDS011;35869;50.990;6.962;2023-11-19T01:48:33;6.45;;;4.38;;
49978;SDS011;35869;50.990;6.962;2023-11-19T01:53:34;8.45;;;6.05;;
49978;SDS011;35869;50.990;6.962;2023-11-19T01:58:37;4.78;;;3.85;;
49978;SDS011;35869;50.990;6.962;2023-11-19T02:03:39;4.05;;;2.50;;
49978;SDS011;35869;50.990;6.962;2023-11-19T02:08:39;7.03;;;3.30;;
49978;SDS011;35869;50.990;6.962;2023-11-19T02:13:39;8.95;;;4.07;;
49978;SDS011;35869;50.990;6.962;2023-11-19T02:18:40;7.10;;;3.77;;
49978;SDS011;35869;50.990;6.962;2023-11-19T02:23:40;9.82;;;4.15;;
49978;SDS011;35869;50.990;6.962;2023-11-19T02:28:41;7.90;;;4.15;;
49978;SDS011;35869;50.990;6.962;2023-11-19T02:33:42;9.45;;;5.00;;
49978;SDS011;35869;50.990;6.962;2023-11-19T02:38:42;8.88;;;4.43;;
49978;SDS011;35869;50.990;6.962;2023-11-19T02:43:42;10.90;;;6.30;;
49978;SDS011;35869;50.990;6.962;2023-11-19T02:48:42;8.23;;;4.20;;
49978;SDS011;35869;50.990;6.962;2023-11-19T02:53:43;8.77;;;5.47;;
49978;SDS011;35869;50.990;6.962;2023-11-19T02:58:43;8.60;;;5.53;;
49978;SDS011;35869;50.990;6.962;2023-11-19T03:03:44;9.57;;;5.22;;
49978;SDS011;35869;50.990;6.962;2023-11-19T03:08:44;23.08;;;7.43;;
49978;SDS011;35869;50.990;6.962;2023-11-19T03:13:44;9.38;;;4.15;;
49978;SDS011;35869;50.990;6.962;2023-11-19T03:18:45;12.80;;;4.93;;
49978;SDS011;35869;50.990;6.962;2023-11-19T03:23:45;17.88;;;7.93;;
49978;SDS011;35869;50.990;6.962;2023-11-19T03:28:45;12.75;;;4.60;;
49978;SDS011;35869;50.990;6.962;2023-11-19T03:33:45;21.20;;;6.57;;
49978;SDS011;35869;50.990;6.962;2023-11-19T03:38:46;12.73;;;5.83;;
49978;SDS011;35869;50.990;6.962;2023-11-19T03:43:46;19.60;;;6.70;;
49978;SDS011;35869;50.990;6.962;2023-11-19T03:48:46;9.88;;;4.88;;
49978;SDS011;35869;50.990;6.962;2023-11-19T03:53:47;20.80;;;6.38;;
49978;SDS011;35869;50.990;6.962;2023-11-19T03:58:48;12.60;;;5.53;;
49978;SDS011;35869;50.990;6.962;2023-11-19T04:03:48;14.05;;;5.25;;
49978;SDS011;35869;50.990;6.962;2023-11-19T04:08:48;12.90;;;6.28;;
49978;SDS011;35869;50.990;6.962;2023-11-19T04:13:48;15.75;;;5.63;;
49978;SDS011;35869;50.990;6.962;2023-11-19T04:18:48;15.43;;;5.15;;
49978;SDS011;35869;50.990;6.962;2023-11-19T04:23:49;12.90;;;4.68;;
49978;SDS011;35869;50.990;6.962;2023-11-19T04:28:49;18.55;;;5.80;;
49978;SDS011;35869;50.990;6.962;2023-11-19T04:33:49;15.60;;;7.55;;
49978;SDS011;35869;50.990;6.962;2023-11-19T04:38:50;11.43;;;5.97;;
49978;SDS011;35869;50.990;6.962;2023-11-19T04:43:50;13.37;;;5.37;;
49978;SDS011;35869;50.990;6.962;2023-11-19T04:48:50;20.33;;;7.07;;
49978;SDS011;35869;50.990;6.962;2023-11-19T04:53:50;19.02;;;5.20;;
49978;SDS011;35869;50.990;6.962;2023-11-19T04:58:51;9.65;;;4.93;;
49978;SDS011;35869;50.990;6.962;2023-11-19T05:03:51;18.38;;;6.03;;
49978;SDS011;35869;50.990;6.962;2023-11-19T05:08:51;20.45;;;6.18;;
49978;SDS011;35869;50.990;6.962;2023-11-19T05:13:51;22.40;;;7.38;;
49978;SDS011;35869;50.990;6.962;2023-11-19T05:18:51;22.30;;;5.65;;
49978;SDS011;35869;50.990;6.962;2023-11-19T05:23:52;11.95;;;4.10;;
49978;SDS011;35869;50.990;6.962;2023-11-19T05:28:52;10.80;;;4.85;;
49978;SDS011;35869;50.990;6.962;2023-11-19T05:33:52;14.73;;;5.18;;
49978;SDS011;35869;50.990;6.962;2023-11-19T05:38:52;14.82;;;5.15;;
49978;SDS011;35869;50.990;6.962;2023-11-19T05:43:53;16.95;;;5.18;;
49978;SDS011;35869;50.990;6.962;2023-11-19T05:48:53;11.73;;;4.78;;
49978;SDS011;35869;50.990;6.962;2023-11-19T05:53:53;19.88;;;5.32;;
49978;SDS011;35869;50.990;6.962;2023-11-19T05:58:53;15.30;;;5.53;;
49978;SDS011;35869;50.990;6.962;2023-11-19T06:03:53;16.85;;;5.57;;
49978;SDS011;35869;50.990;6.962;2023-11-19T06:08:54;15.45;;;5.13;;
49978;SDS011;35869;50.990;6.962;2023-11-19T06:13:54;11.95;;;4.50;;
49978;SDS011;35869;50.990;6.962;2023-11-19T06:18:54;27.05;;;6.50;;
49978;SDS011;35869;50.990;6.962;2023-11-19T06:23:54;17.13;;;6.05;;
49978;SDS011;35869;50.990;6.962;2023-11-19T06:28:54;12.95;;;4.63;;
49978;SDS011;35869;50.990;6.962;2023-11-19T06:33:55;11.02;;;4.20;;
49978;SDS011;35869;50.990;6.962;2023-11-19T06:38:55;12.68;;;4.40;;
49978;SDS011;35869;50.990;6.962;2023-11-19T06:43:55;17.67;;;5.88;;
49978;SDS011;35869;50.990;6.962;2023-11-19T06:48:55;15.93;;;5.53;;
49978;SDS011;35869;50.990;6.962;2023-11-19T06:53:56;16.80;;;5.03;;
49978;SDS011;35869;50.990;6.962;2023-11-19T06:58:56;14.05;;;5.75;;
49978;SDS011;35869;50.990;6.962;2023-11-19T07:03:56;17.65;;;5.18;;
49978;SDS011;35869;50.990;6.962;2023-11-19T07:08:56;12.57;;;5.20;;
49978;SDS011;35869;50.990;6.962;2023-11-19T07:13:56;19.65;;;6.07;;
49978;SDS011;35869;50.990;6.962;2023-11-19T07:18:57;14.65;;;5.85;;
49978;SDS011;35869;50.990;6.962;2023-11-19T07:23:57;16.85;;;5.18;;
49978;SDS011;35869;50.990;6.962;2023-11-19T07:28:57;16.83;;;5.57;;
49978;SDS011;35869;50.990;6.962;2023-11-19T07:33:57;21.67;;;5.73;;
49978;SDS011;35869;50.990;6.962;2023-11-19T07:38:58;18.73;;;5.53;;
49978;SDS011;35869;50.990;6.962;2023-11-19T07:43:59;18.20;;;5.43;;
49978;SDS011;35869;50.990;6.962;2023-11-19T07:49:00;20.58;;;4.70;;
49978;SDS011;35869;50.990;6.962;2023-11-19T07:54:00;17.38;;;4.50;;
49978;SDS011;35869;50.990;6.962;2023-11-19T07:59:01;20.15;;;5.47;;
49978;SDS011;35869;50.990;6.962;2023-11-19T08:04:02;12.00;;;4.68;;
49978;SDS011;35869;50.990;6.962;2023-11-19T08:14:19;17.67;;;4.57;;
49978;SDS011;35869;50.990;6.962;2023-11-19T08:19:26;17.05;;;5.45;;
49978;SDS011;35869;50.990;6.962;2023-11-19T08:24:28;12.40;;;4.80;;
49978;SDS011;35869;50.990;6.962;2023-11-19T08:29:39;17.83;;;5.28;;
49978;SDS011;35869;50.990;6.962;2023-11-19T08:34:39;12.03;;;6.30;;
49978;SDS011;35869;50.990;6.962;2023-11-19T08:39:39;18.00;;;6.00;;
49978;SDS011;35869;50.990;6.962;2023-11-19T08:49:40;18.08;;;4.70;;
49978;SDS011;35869;50.990;6.962;2023-11-19T08:54:43;17.13;;;5.25;;
49978;SDS011;35869;50.990;6.962;2023-11-19T08:59:44;26.48;;;6.00;;
49978;SDS011;35869;50.990;6.962;2023-11-19T09:04:44;11.50;;;4.88;;
49978;SDS011;35869;50.990;6.962;2023-11-19T09:09:45;13.75;;;4.47;;
49978;SDS011;35869;50.990;6.962;2023-11-19T09:14:45;15.23;;;5.15;;
49978;SDS011;35869;50.990;6.962;2023-11-19T09:19:46;11.95;;;5.03;;
49978;SDS011;35869;50.990;6.962;2023-11-19T09:24:46;19.40;;;4.77;;
49978;SDS011;35869;50.990;6.962;2023-11-19T09:29:48;13.90;;;5.25;;
49978;SDS011;35869;50.990;6.962;2023-11-19T09:34:49;17.27;;;4.97;;
49978;SDS011;35869;50.990;6.962;2023-11-19T09:39:49;11.93;;;4.63;;
49978;SDS011;35869;50.990;6.962;2023-11-19T09:44:49;13.68;;;4.50;;
49978;SDS011;35869;50.990;6.962;2023-11-19T09:54:50;22.33;;;4.93;;
49978;SDS011;35869;50.990;6.962;2023-11-19T09:59:50;11.15;;;4.22;;
49978;SDS011;35869;50.990;6.962;2023-11-19T10:04:52;19.95;;;5.32;;
49978;SDS011;35869;50.990;6.962;2023-11-19T10:14:54;20.33;;;4.50;;
49978;SDS011;35869;50.990;6.962;2023-11-19T10:19:57;11.13;;;4.57;;
49978;SDS011;35869;50.990;6.962;2023-11-19T10:24:59;13.55;;;5.65;;
49978;SDS011;35869;50.990;6.962;2023-11-19T10:29:59;15.27;;;5.13;;
49978;SDS011;35869;50.990;6.962;2023-11-19T10:35:05;12.40;;;4.43;;
49978;SDS011;35869;50.990;6.962;2023-11-19T10:50:43;8.60;;;3.83;;
49978;SDS011;35869;50.990;6.962;2023-11-19T10:55:47;9.15;;;3.42;;
49978;SDS011;35869;50.990;6.962;2023-11-19T11:00:48;11.65;;;4.55;;
49978;SDS011;35869;50.990;6.962;2023-11-19T11:05:52;14.07;;;4.53;;
49978;SDS011;35869;50.990;6.962;2023-11-19T11:15:54;20.20;;;4.88;;
49978;SDS011;35869;50.990;6.962;2023-11-19T11:21:14;13.07;;;4.00;;
49978;SDS011;35869;50.990;6.962;2023-11-19T11:31:55;14.52;;;4.18;;
49978;SDS011;35869;50.990;6.962;2023-11-19T11:47:26;13.93;;;3.72;;
49978;SDS011;35869;50.990;6.962;2023-11-19T11:57:58;10.80;;;3.15;;
49978;SDS011;35869;50.990;6.962;2023-11-19T12:08:01;6.32;;;2.13;;
49978;SDS011;35869;50.990;6.962;2023-11-19T12:13:04;14.23;;;2.88;;
49978;SDS011;35869;50.990;6.962;2023-11-19T12:18:06;11.73;;;2.88;;
49978;SDS011;35869;50.990;6.962;2023-11-19T12:23:08;9.95;;;3.42;;
49978;SDS011;35869;50.990;6.962;2023-11-19T12:28:21;14.82;;;3.67;;
49978;SDS011;35869;50.990;6.962;2023-11-19T12:38:23;15.57;;;3.28;;
49978;SDS011;35869;50.990;6.962;2023-11-19T12:43:25;8.73;;;2.75;;
49978;SDS011;35869;50.990;6.962;2023-11-19T12:48:25;12.57;;;3.85;;
49978;SDS011;35869;50.990;6.962;2023-11-19T12:58:41;12.02;;;3.33;;
49978;SDS011;35869;50.990;6.962;2023-11-19T13:03:42;11.82;;;2.97;;
49978;SDS011;35869;50.990;6.962;2023-11-19T13:08:43;9.05;;;2.92;;
49978;SDS011;35869;50.990;6.962;2023-11-19T13:13:59;7.97;;;2.95;;
49978;SDS011;35869;50.990;6.962;2023-11-19T13:19:04;15.45;;;3.38;;
49978;SDS011;35869;50.990;6.962;2023-11-19T13:24:04;6.07;;;2.45;;
49978;SDS011;35869;50.990;6.962;2023-11-19T13:29:10;8.50;;;3.13;;
49978;SDS011;35869;50.990;6.962;2023-11-19T13:34:19;14.10;;;3.25;;
49978;SDS011;35869;50.990;6.962;2023-11-19T13:44:19;10.52;;;3.33;;
49978;SDS011;35869;50.990;6.962;2023-11-19T13:49:19;11.30;;;4.25;;
49978;SDS011;35869;50.990;6.962;2023-11-19T13:59:20;10.80;;;3.00;;
49978;SDS011;35869;50.990;6.962;2023-11-19T14:04:20;15.57;;;3.65;;
49978;SDS011;35869;50.990;6.962;2023-11-19T14:09:20;9.52;;;3.38;;
49978;SDS011;35869;50.990;6.962;2023-11-19T14:14:27;12.45;;;3.65;;
49978;SDS011;35869;50.990;6.962;2023-11-19T14:19:27;13.15;;;4.30;;
49978;SDS011;35869;50.990;6.962;2023-11-19T14:24:27;9.18;;;3.50;;
49978;SDS011;35869;50.990;6.962;2023-11-19T14:34:28;8.88;;;3.53;;
49978;SDS011;35869;50.990;6.962;2023-11-19T14:39:31;8.45;;;3.35;;
49978;SDS011;35869;50.990;6.962;2023-11-19T14:44:31;9.82;;;3.28;;
49978;SDS011;35869;50.990;6.962;2023-11-19T14:49:31;10.00;;;3.20;;
49978;SDS011;35869;50.990;6.962;2023-11-19T14:54:34;7.90;;;3.50;;
49978;SDS011;35869;50.990;6.962;2023-11-19T14:59:34;11.10;;;3.17;;
49978;SDS011;35869;50.990;6.962;2023-11-19T15:09:35;11.60;;;3.13;;
49978;SDS011;35869;50.990;6.962;2023-11-19T15:14:35;9.98;;;3.20;;
49978;SDS011;35869;50.990;6.962;2023-11-19T15:19:35;8.02;;;3.20;;
49978;SDS011;35869;50.990;6.962;2023-11-19T15:24:36;7.93;;;3.40;;
49978;SDS011;35869;50.990;6.962;2023-11-19T15:29:36;14.73;;;4.60;;
49978;SDS011;35869;50.990;6.962;2023-11-19T15:34:36;11.57;;;2.92;;
49978;SDS011;35869;50.990;6.962;2023-11-19T15:39:36;10.55;;;3.28;;
49978;SDS011;35869;50.990;6.962;2023-11-19T15:44:37;14.38;;;3.40;;
49978;SDS011;35869;50.990;6.962;2023-11-19T15:54:38;15.80;;;4.50;;
49978;SDS011;35869;50.990;6.962;2023-11-19T15:59:38;13.48;;;3.83;;
49978;SDS011;35869;50.990;6.962;2023-11-19T16:09:39;13.10;;;3.47;;
49978;SDS011;35869;50.990;6.962;2023-11-19T16:19:40;15.70;;;3.63;;
49978;SDS011;35869;50.990;6.962;2023-11-19T16:24:40;11.32;;;3.70;;
49978;SDS011;35869;50.990;6.962;2023-11-19T16:29:40;10.30;;;3.72;;
49978;SDS011;35869;50.990;6.962;2023-11-19T16:34:40;14.43;;;3.78;;
49978;SDS011;35869;50.990;6.962;2023-11-19T16:39:41;15.93;;;4.78;;
49978;SDS011;35869;50.990;6.962;2023-11-19T16:44:41;15.20;;;4.32;;
49978;SDS011;35869;50.990;6.962;2023-11-19T16:49:41;13.00;;;4.40;;
49978;SDS011;35869;50.990;6.962;2023-11-19T16:54:41;12.43;;;4.03;;
49978;SDS011;35869;50.990;6.962;2023-11-19T16:59:43;12.55;;;4.35;;
49978;SDS011;35869;50.990;6.962;2023-11-19T17:04:44;8.65;;;3.25;;
49978;SDS011;35869;50.990;6.962;2023-11-19T17:09:44;9.88;;;3.70;;
49978;SDS011;35869;50.990;6.962;2023-11-19T17:14:44;10.57;;;4.05;;
49978;SDS011;35869;50.990;6.962;2023-11-19T17:19:44;15.55;;;4.28;;
49978;SDS011;35869;50.990;6.962;2023-11-19T17:24:44;22.25;;;9.38;;
49978;SDS011;35869;50.990;6.962;2023-11-19T17:29:45;16.83;;;7.78;;
49978;SDS011;35869;50.990;6.962;2023-11-19T17:34:45;13.38;;;4.95;;
49978;SDS011;35869;50.990;6.962;2023-11-19T17:39:45;11.55;;;3.60;;
49978;SDS011;35869;50.990;6.962;2023-11-19T17:49:47;12.52;;;3.80;;
49978;SDS011;35869;50.990;6.962;2023-11-19T17:54:47;10.02;;;3.78;;
49978;SDS011;35869;50.990;6.962;2023-11-19T17:59:47;15.30;;;3.70;;
49978;SDS011;35869;50.990;6.962;2023-11-19T18:04:47;13.20;;;4.15;;
49978;SDS011;35869;50.990;6.962;2023-11-19T18:09:48;8.68;;;3.30;;
49978;SDS011;35869;50.990;6.962;2023-11-19T18:14:48;11.48;;;3.58;;
49978;SDS011;35869;50.990;6.962;2023-11-19T18:19:48;10.32;;;3.20;;
49978;SDS011;35869;50.990;6.962;2023-11-19T18:24:49;24.98;;;3.92;;
49978;SDS011;35869;50.990;6.962;2023-11-19T18:29:49;13.57;;;4.13;;
49978;SDS011;35869;50.990;6.962;2023-11-19T18:34:49;7.55;;;3.45;;
49978;SDS011;35869;50.990;6.962;2023-11-19T18:39:49;12.90;;;3.05;;
49978;SDS011;35869;50.990;6.962;2023-11-19T18:44:50;6.47;;;2.42;;
49978;SDS011;35869;50.990;6.962;2023-11-19T18:49:50;6.75;;;2.08;;
49978;SDS011;35869;50.990;6.962;2023-11-19T18:59:50;6.95;;;2.53;;
49978;SDS011;35869;50.990;6.962;2023-11-19T19:04:51;16.90;;;3.25;;
49978;SDS011;35869;50.990;6.962;2023-11-19T19:09:51;8.73;;;3.53;;
49978;SDS011;35869;50.990;6.962;2023-11-19T19:14:51;9.35;;;2.58;;
49978;SDS011;35869;50.990;6.962;2023-11-19T19:19:51;10.50;;;3.20;;
49978;SDS011;35869;50.990;6.962;2023-11-19T19:24:51;6.88;;;2.78;;
49978;SDS011;35869;50.990;6.962;2023-11-19T19:29:52;9.35;;;2.08;;
49978;SDS011;35869;50.990;6.962;2023-11-19T19:34:52;7.07;;;2.45;;
49978;SDS011;35869;50.990;6.962;2023-11-19T19:44:53;5.60;;;2.35;;
49978;SDS011;35869;50.990;6.962;2023-11-19T19:49:53;7.38;;;2.58;;
49978;SDS011;35869;50.990;6.962;2023-11-19T19:54:53;9.30;;;2.53;;
49978;SDS011;35869;50.990;6.962;2023-11-19T19:59:53;8.65;;;3.05;;
49978;SDS011;35869;50.990;6.962;2023-11-19T20:10:21;9.90;;;3.03;;
49978;SDS011;35869;50.990;6.962;2023-11-19T20:15:21;13.00;;;3.13;;
49978;SDS011;35869;50.990;6.962;2023-11-19T20:20:21;6.40;;;2.03;;
49978;SDS011;35869;50.990;6.962;2023-11-19T20:25:23;5.55;;;2.63;;
49978;SDS011;35869;50.990;6.962;2023-11-19T20:30:23;9.55;;;3.30;;
49978;SDS011;35869;50.990;6.962;2023-11-19T20:35:24;9.00;;;2.97;;
49978;SDS011;35869;50.990;6.962;2023-11-19T20:40:24;7.03;;;2.58;;
49978;SDS011;35869;50.990;6.962;2023-11-19T20:45:24;7.22;;;2.50;;
49978;SDS011;35869;50.990;6.962;2023-11-19T20:50:24;8.73;;;2.42;;
49978;SDS011;35869;50.990;6.962;2023-11-19T20:55:25;5.88;;;2.25;;
49978;SDS011;35869;50.990;6.962;2023-11-19T21:00:25;13.70;;;3.07;;
49978;SDS011;35869;50.990;6.962;2023-11-19T21:05:25;7.80;;;2.45;;
49978;SDS011;35869;50.990;6.962;2023-11-19T21:10:25;7.60;;;2.28;;
49978;SDS011;35869;50.990;6.962;2023-11-19T21:15:26;7.35;;;2.40;;
49978;SDS011;35869;50.990;6.962;2023-11-19T21:20:26;8.32;;;2.78;;
49978;SDS011;35869;50.990;6.962;2023-11-19T21:25:26;6.97;;;2.10;;
49978;SDS011;35869;50.990;6.962;2023-11-19T21:30:27;6.07;;;2.10;;
49978;SDS011;35869;50.990;6.962;2023-11-19T21:35:27;5.45;;;1.92;;
49978;SDS011;35869;50.990;6.962;2023-11-19T21:40:27;9.63;;;2.83;;
49978;SDS011;35869;50.990;6.962;2023-11-19T21:45:27;5.07;;;2.13;;
49978;SDS011;35869;50.990;6.962;2023-11-19T21:50:27;5.43;;;1.70;;
49978;SDS011;35869;50.990;6.962;2023-11-19T21:55:28;8.15;;;2.03;;
49978;SDS011;35869;50.990;6.962;2023-11-19T22:00:28;6.07;;;1.97;;
49978;SDS011;35869;50.990;6.962;2023-11-19T22:05:28;6.15;;;1.83;;
49978;SDS011;35869;50.990;6.962;2023-11-19T22:10:28;5.43;;;2.10;;
49978;SDS011;35869;50.990;6.962;2023-11-19T22:15:29;6.22;;;1.58;;
49978;SDS011;35869;50.990;6.962;2023-11-19T22:20:29;9.90;;;1.80;;
49978;SDS011;35869;50.990;6.962;2023-11-19T22:25:31;4.45;;;1.55;;
49978;SDS011;35869;50.990;6.962;2023-11-19T22:30:34;3.28;;;1.50;;
49978;SDS011;35869;50.990;6.962;2023-11-19T22:35:34;4.22;;;1.73;;
49978;SDS011;35869;50.990;6.962;2023-11-19T22:40:34;5.55;;;1.77;;
49978;SDS011;35869;50.990;6.962;2023-11-19T22:45:34;4.47;;;1.90;;
49978;SDS011;35869;50.990;6.962;2023-11-19T22:50:35;2.53;;;1.48;;
49978;SDS011;35869;50.990;6.962;2023-11-19T22:55:35;4.05;;;1.65;;
49978;SDS011;35869;50.990;6.962;2023-11-19T23:00:35;4.80;;;1.92;;
49978;SDS011;35869;50.990;6.962;2023-11-19T23:05:35;5.43;;;1.83;;
49978;SDS011;35869;50.990;6.962;2023-11-19T23:10:35;5.53;;;1.52;;
49978;SDS011;35869;50.990;6.962;2023-11-19T23:15:36;3.63;;;1.70;;
49978;SDS011;35869;50.990;6.962;2023-11-19T23:20:38;5.03;;;2.00;;
49978;SDS011;35869;50.990;6.962;2023-11-19T23:25:38;2.45;;;1.25;;
49978;SDS011;35869;50.990;6.962;2023-11-19T23:30:39;2.15;;;1.25;;
49978;SDS011;35869;50.990;6.962;2023-11-19T23:35:39;6.78;;;2.03;;
49978;SDS011;35869;50.990;6.962;2023-11-19T23:40:39;4.97;;;1.60;;
49978;SDS011;35869;50.990;6.962;2023-11-19T23:45:39;3.80;;;1.70;;
49978;SDS011;35869;50.990;6.962;2023-11-19T23:50:39;5.55;;;1.98;;
49978;SDS011;35869;50.990;6.962;2023-11-19T23:55:40;5.68;;;1.73;;
